ADDS TAF Data INFO
IDs: Format: Raw Decoded Include METARs

Data at: 0129 UTC 30 Aug 2015

Region: TOP
KATL 292338Z 3000/3106 12005KT P6SM SCT030 BKN080
  FM300900 09007KT P6SM -SHRA SCT006 OVC025
  TEMPO 3010/3014 5SM -RA BR BKN008
  FM301400 07009KT P6SM -RA OVC015
  FM301600 08008KT P6SM BKN025 BKN120
  FM301900 09010KT P6SM VCSH BKN035
  PROB30 3019/3022 5SM -TSRA BKN025CB
  FM310000 09007KT P6SM SCT040 BKN100


KBOS 292333Z 3000/3106 25007KT P6SM FEW200
  FM301500 24006KT P6SM BKN070
  FM310500 24004KT P6SM SCT050


KBWI 292339Z 3000/3106 17005KT P6SM SCT090
  FM301200 22005KT P6SM SCT090
  FM302000 17006KT P6SM BKN070


KCLE 292340Z 3000/3106 05007KT P6SM VCSH BKN080 BKN120
  TEMPO 3000/3003 VRB05KT 5SM -SHRA BKN060 OVC100
  FM300300 14004KT P6SM VCSH BKN070 OVC100
  FM300900 18005KT 6SM BR VCSH BKN060 OVC080
  FM301400 25005KT P6SM VCSH BKN060 OVC080
  FM302200 22005KT P6SM SCT060 BKN200


KCLT 292320Z 3000/3024 12005KT P6SM FEW060 BKN170
  FM300800 15003KT P6SM SCT060 BKN100
  FM301700 17006KT P6SM BKN060
  FM302200 16005KT P6SM BKN045


KCVG 292320Z 3000/3106 18004KT P6SM SCT040 BKN150
  TEMPO 3009/3012 5SM BR
  FM301400 21008KT P6SM BKN040
  FM301800 20008KT P6SM VCSH BKN040
  FM310100 19004KT P6SM SCT050 BKN150


KDCA 292339Z 3000/3024 17007KT P6SM BKN100
  FM301600 18008KT P6SM SCT050
  FM302000 20009KT P6SM BKN070


KDEN 292323Z 3000/3106 16015KT P6SM FEW080 SCT250
  FM300500 20014KT P6SM SCT250
  FM301500 25007KT P6SM SCT140 SCT250
  FM301800 VRB05KT P6SM FEW090 SCT140 SCT250
  FM302100 15009KT P6SM SCT090 SCT140


KDFW 292331Z 3000/3106 18008KT P6SM VCSH BKN100
  FM300200 20005KT P6SM BKN150
  FM301900 17010KT P6SM SCT200


KDTW 292320Z 3000/3106 11003KT P6SM SCT060 OVC090
  TEMPO 3000/3003 4SM -SHRA SCT025 OVC045
  FM300500 12005KT 3SM BR SCT045
  FM301000 VRB03KT 1SM BR BKN015
  FM301400 23005KT 3SM BR BKN025
  FM301600 23007KT P6SM BKN045


KEWR 292329Z 3000/3106 17010KT P6SM FEW050 SCT250
  FM300200 21007KT P6SM FEW050 SCT250
  FM300400 25005KT P6SM FEW050 SCT100
  FM301800 21011KT P6SM BKN050 BKN100
  FM310100 24007KT P6SM BKN050 BKN100


KFLL 292344Z 3000/3024 10014G20KT P6SM VCSH SCT025 SCT100 BKN200
  FM300600 11014G22KT P6SM VCTS SCT020CB BKN050 BKN200
  FM301500 14018G25KT P6SM VCTS SCT025CB BKN050


KIAD 292339Z 3000/3106 19005KT P6SM BKN090
  FM301200 23005KT P6SM SCT120
  FM301900 22006KT P6SM BKN060


KIAH 292320Z 3000/3106 VRB04KT P6SM BKN250
  FM301700 14007KT P6SM SCT050 BKN250


KJFK 292329Z 3000/3106 18013KT P6SM FEW050 SCT250
  FM300100 20010KT P6SM FEW050 SCT250
  FM300300 24008KT P6SM FEW050 SCT100
  FM301700 19013KT P6SM SCT050 BKN100
  FM302000 19017KT P6SM BKN050 BKN100
  FM310100 20011KT P6SM BKN050 BKN100
  FM310400 21008KT P6SM BKN050 BKN100


KLAS 292320Z 3000/3024 22013G22KT P6SM VCSH FEW120 SCT250
  FM300300 23012KT P6SM FEW250
  FM301100 20010KT P6SM SKC
  FM301800 22012G20KT P6SM FEW250


KLAX 292340Z 3000/3106 26015KT P6SM SKC
  FM300400 25008KT 5SM BR SKC
  FM300900 VRB03KT 3SM BR BKN005
  FM301100 14006KT 5SM BR OVC007
  FM301700 23005KT 6SM HZ SCT010
  FM302000 25012KT P6SM SKC
  FM310400 26007KT P6SM SKC


KLGA 292329Z 3000/3024 18012KT P6SM FEW050 SCT250
  FM300300 24008KT P6SM FEW050 SCT100
  FM301200 25006KT P6SM FEW050 SCT100
  FM301800 19010KT P6SM SCT050 BKN100
  FM302000 19015KT P6SM BKN050 BKN100


KMCO 292334Z 3000/3024 36010KT P6SM VCSH BKN040 BKN180 OVC250
  TEMPO 3001/3003 VRB15G28KT 3SM TSRA BKN025CB
  FM300400 09004KT P6SM SCT020 BKN150 OVC250
  FM301300 13010KT P6SM SCT020 BKN035 OVC060
  TEMPO 3015/3018 2SM +TSRA BKN020CB
  FM301800 09008KT P6SM VCTS BKN030CB OVC100


KMDW 300116Z 3001/3024 03003KT 4SM BR VCSH BKN015 OVC025
  TEMPO 3001/3003 2SM -SHRA
  FM300400 03003KT 1SM BR OVC005
  FM300800 02003KT 1/2SM FG OVC005
  FM301400 06004KT 3SM HZ SCT005 BKN009
  FM301800 09006KT P6SM SCT010 BKN025
  FM302300 12004KT P6SM SCT025


KMEM 292332Z 3000/3024 21005KT P6SM SCT060 SCT250
  FM300100 16005KT P6SM FEW100 SCT150
  FM301600 19007KT P6SM SCT040


KMIA 292344Z 3000/3024 10012KT P6SM VCSH SCT030 BKN080 BKN250
  FM300600 10012G18KT P6SM VCTS SCT020CB BKN050
  FM301400 14015G24KT P6SM VCTS SCT025CB BKN050


KMSP 292320Z 3000/3106 16004KT P6SM BKN250
  FM300700 17005KT 5SM BCFG SCT003
  FM301400 18009KT P6SM SKC


KORD 300116Z 3001/3106 03003KT 4SM BR VCSH BKN015 OVC025
  TEMPO 3001/3003 2SM -SHRA
  FM300300 02003KT 1SM BR OVC005
  FM300700 02003KT 1/2SM FG OVC005
  FM301400 06004KT 3SM HZ SCT005 BKN009
  FM301800 09006KT P6SM SCT010 BKN025
  FM302300 12004KT P6SM SCT025


KPDX 292342Z 3000/3024 22010G18KT P6SM SCT045 BKN060 OVC100
  TEMPO 3000/3004 -SHRA
  FM300400 19010KT P6SM -RA SCT020 BKN035 OVC050
  FM301000 18012KT P6SM -SHRA SCT035 BKN050
  FM302000 20010KT P6SM VCSH SCT035 BKN050


KPHL 292326Z 3000/3106 21005KT P6SM FEW050 SCT250
  FM301500 23008KT P6SM SCT050 BKN250
  FM310300 23005KT P6SM SCT050 OVC200


KPHX 300113Z 3001/3024 25008KT P6SM VCTS FEW100CB SCT250
  TEMPO 3001/3002 15012G20KT SCT100CB
  FM300300 08012KT P6SM SCT100 BKN200
  FM300500 11005KT P6SM SCT120 BKN250
  FM302000 23007KT P6SM SCT100


KPIT 292320Z 3000/3106 VRB05KT P6SM BKN080
  FM301900 25008KT P6SM VCSH BKN050
  FM310300 VRB03KT P6SM BKN250


KSAN 292324Z 3000/3106 30005KT P6SM SKC
  FM301000 VRB04KT P6SM BKN008
  FM301600 VRB04KT P6SM SCT010
  FM301900 29010KT P6SM SKC
  FM310100 VRB04KT P6SM FEW012
  FM310500 VRB04KT P6SM BKN012


KSEA 292351Z 3000/3106 22018G28KT P6SM SCT040 BKN100
  FM300100 22012KT 5SM -RA BR BKN030 OVC050
  FM300400 21010KT P6SM -SHRA SCT025 BKN040
  FM301400 19008KT P6SM BKN030 OVC060
  FM302000 21012KT P6SM BKN050 BKN080


KSFO 292348Z 3000/3106 28016G22KT P6SM FEW015 SCT040 BKN250
  FM300400 27016KT P6SM FEW015
  FM300700 28009KT P6SM SCT012
  TEMPO 3007/3011 BKN012
  FM301100 28008KT P6SM BKN012
  FM301700 28011KT P6SM FEW012
  FM302100 29020G28KT P6SM FEW020
  FM310400 28017KT P6SM FEW015


KSLC 292336Z 3000/3106 15014G20KT P6SM SCT100 SCT150 BKN200
  FM300100 19015KT P6SM VCSH SCT080 BKN120
  FM300400 18012KT P6SM BKN120
  FM301200 24007KT P6SM BKN120
  FM301800 34010G18KT P6SM FEW080 SCT120


KSTL 292322Z 3000/3106 17007KT P6SM VCTS SCT050CB BKN200
  FM300100 19005KT P6SM BKN070 BKN200
  FM301500 18006KT P6SM SCT050


KTPA 292334Z 3000/3024 VRB06KT P6SM VCTS SCT035CB SCT120 BKN250
  TEMPO 3001/3003 VRB15G25KT 3SM TSRA BKN025CB
  FM300300 VRB03KT P6SM FEW025 BKN250
  FM301600 12008KT 6SM SHRA VCTS SCT018CB BKN040